»·PEaware :: QXE2081 KPDX-KEUG

QXE2081 :: KPDX-KEUG

FLIGHT INFORMATION

Flight Status: Arrived
Operator:
Horizon Air
More flights by this operator :: More flights under this callsign
Pilot: Mike F. (207)
Aircraft: DEHAVILLAND DASH 8 400
(DH8D)
More flights by this aircraft type
Origin: KPDX Portland Intl
United States
Destination: KEUG Mahlon Sweet
United States
More flights between these airports :: More routes between these airports
Route: BTG V23 EUG
File this flight plan on PilotEdge
Remarks:
Altitude:
(Current/Filed)
15,000ft
Speed:
(Current/Filed)
310kts
Departed: 29-May-19 08:52 PM
Arrived: 29-May-19 09:18 PM
Distance/Time
Traveled:
92nm/0:26
Distance/Time
To Go:
Arrived

Flight Plot

Page will automatically refresh every two minutes.

Flight plan parsing failed; only flown route is shown


Map Options




Map Legend


Flown Route
Filed Route
Departure Airport
Arrival Airport
Navaid (VOR, NDB)
Fix

Horizontal Profiles

Position Reports

Time Latitude Longitude Heading Altitude Ground
Speed
29-May-19 20:15 45.585481 -122.591241 76 37ft 0kts
29-May-19 20:16 45.585481 -122.591241 76 37ft 0kts
29-May-19 20:17 45.585481 -122.591241 76 37ft 0kts
29-May-19 20:18 45.585481 -122.591241 76 37ft 0kts
29-May-19 20:19 45.585481 -122.591241 76 37ft 0kts
29-May-19 20:20 45.585481 -122.591241 76 37ft 0kts
29-May-19 20:21 45.585481 -122.591241 76 37ft 0kts
29-May-19 20:22 45.585481 -122.591241 76 37ft 0kts
29-May-19 20:23 45.585481 -122.591241 76 37ft 0kts
29-May-19 20:24 45.585481 -122.591241 76 37ft 0kts
29-May-19 20:25 45.585481 -122.591241 76 37ft 0kts
29-May-19 20:26 45.585481 -122.591241 76 37ft 0kts
29-May-19 20:27 45.585481 -122.591241 76 37ft 0kts
29-May-19 20:28 45.585481 -122.591241 76 37ft 0kts
29-May-19 20:29 45.585481 -122.591241 76 37ft 0kts
29-May-19 20:30 45.585481 -122.591241 76 37ft 0kts
29-May-19 20:31 45.585481 -122.591241 76 37ft 0kts
29-May-19 20:32 45.585481 -122.591241 76 37ft 0kts
29-May-19 20:33 45.585481 -122.591241 76 37ft 0kts
29-May-19 20:34 45.585481 -122.591241 76 37ft 0kts
29-May-19 20:35 45.585481 -122.591241 76 37ft 0kts
29-May-19 20:36 45.585481 -122.591241 76 37ft 0kts
29-May-19 20:37 45.585481 -122.591241 76 37ft 0kts
29-May-19 20:38 45.585343 -122.591452 356 37ft 2kts
29-May-19 20:39 45.585114 -122.591258 319 37ft 0kts
29-May-19 20:40 45.585114 -122.591258 319 37ft 0kts
29-May-19 20:41 45.585114 -122.591258 319 37ft 0kts
29-May-19 20:42 45.585113 -122.591256 319 37ft 0kts
29-May-19 20:43 45.586304 -122.593775 308 37ft 16kts
29-May-19 20:44 45.588215 -122.598351 299 37ft 11kts
29-May-19 20:45 45.589633 -122.601936 299 37ft 9kts
29-May-19 20:46 45.590671 -122.605632 314 37ft 13kts
29-May-19 20:47 45.593239 -122.611763 298 37ft 15kts
29-May-19 20:48 45.594869 -122.615937 299 37ft 12kts
29-May-19 20:49 45.596315 -122.619757 281 37ft 6kts
29-May-19 20:50 45.595135 -122.620937 155 37ft 10kts
29-May-19 20:51 45.584669 -122.594294 118 276ft 154kts
29-May-19 20:52 45.561795 -122.539222 118 2831ft 161kts
29-May-19 20:53 45.537870 -122.481687 119 5300ft 169kts
29-May-19 20:54 45.502730 -122.441808 192 7482ft 186kts
29-May-19 20:55 45.449491 -122.472176 201 9205ft 220kts
29-May-19 20:56 45.392282 -122.505785 201 11413ft 228kts
29-May-19 20:57 45.333693 -122.539967 201 13484ft 233kts
29-May-19 20:58 45.273018 -122.574986 200 14875ft 258kts
29-May-19 20:59 45.201783 -122.615666 201 14945ft 305kts
29-May-19 21:00 45.124080 -122.659976 201 14943ft 317kts
29-May-19 21:01 45.042861 -122.706220 201 14941ft 324kts
29-May-19 21:02 44.960612 -122.753003 201 14937ft 325kts
29-May-19 21:03 44.880024 -122.798626 202 14935ft 323kts
29-May-19 21:04 44.802508 -122.842338 202 13006ft 289kts
29-May-19 21:05 44.734998 -122.880240 202 11090ft 261kts
29-May-19 21:06 44.672838 -122.914829 202 9301ft 247kts
29-May-19 21:07 44.611902 -122.948916 203 7635ft 256kts
29-May-19 21:08 44.547634 -122.984844 203 5924ft 253kts
29-May-19 21:09 44.485611 -123.019571 203 4544ft 238kts
29-May-19 21:10 44.424336 -123.054004 203 3971ft 250kts
29-May-19 21:11 44.361794 -123.088974 203 3950ft 254kts
29-May-19 21:12 44.298094 -123.124521 203 3883ft 257kts
29-May-19 21:13 44.239829 -123.159578 210 2964ft 214kts
29-May-19 21:14 44.197190 -123.197575 216 2038ft 166kts
29-May-19 21:15 44.160057 -123.219341 181 900ft 142kts
29-May-19 21:16 44.124787 -123.218912 179 376ft 74kts
29-May-19 21:17 44.119926 -123.217299 129 376ft 13kts
29-May-19 21:18 44.119070 -123.214302 81 376ft 3kts
29-May-19 21:19 44.119104 -123.214009 80 376ft 0kts

Navigation Log

Ident Type
Flight plan parsing failed, navigation log unavailable